createdAt,value
2023-04-26T00:03:14.745Z,79.94
2023-04-26T00:08:19.909Z,79.24
2023-04-26T00:13:21.881Z,79.07
2023-04-26T00:18:23.828Z,78.71
2023-04-26T00:23:26.276Z,77.77
2023-04-26T00:28:31.741Z,77.91
2023-04-26T00:33:33.902Z,77.44
2023-04-26T00:38:36.112Z,77.18
2023-04-26T00:43:38.514Z,76.54
2023-04-26T00:48:41.268Z,76.35
2023-04-26T00:53:43.568Z,76.39
2023-04-26T00:58:46.396Z,75.89
2023-04-26T01:05:18.262Z,75.86
2023-04-26T01:10:21.445Z,75.72
2023-04-26T01:15:24.732Z,75.72
2023-04-26T01:20:27.127Z,75.24
2023-04-26T01:25:30.150Z,75.13
2023-04-26T01:30:32.334Z,75.03
2023-04-26T01:35:38.231Z,74.84
2023-04-26T01:40:43.729Z,74.33
2023-04-26T01:45:48.604Z,74.25
2023-04-26T01:51:05.634Z,74.18
2023-04-26T01:56:08.851Z,74.17
2023-04-26T02:01:12.700Z,74.11
2023-04-26T02:06:17.148Z,74.21
2023-04-26T02:11:19.613Z,74.09
2023-04-26T02:16:23.027Z,73.77
2023-04-26T02:21:58.000Z,73.56
2023-04-26T02:27:06.222Z,73.71
2023-04-26T02:32:10.455Z,73.89
2023-04-26T02:37:12.213Z,72.99
2023-04-26T02:42:14.206Z,73.82
2023-04-26T02:47:16.927Z,73.50
2023-04-26T02:52:19.017Z,73.95
2023-04-26T02:57:20.873Z,73.24
2023-04-26T03:02:23.317Z,73.86
2023-04-26T03:07:25.902Z,74.04
2023-04-26T03:12:28.474Z,73.69
2023-04-26T03:17:30.808Z,74.06
2023-04-26T03:22:34.410Z,73.94
2023-04-26T03:27:36.558Z,73.82
2023-04-26T03:32:40.959Z,74.14
2023-04-26T03:37:43.551Z,74.11
2023-04-26T03:42:48.187Z,73.82
2023-04-26T03:47:51.078Z,74.10
2023-04-26T03:52:54.070Z,74.03
2023-04-26T03:57:56.081Z,74.06
2023-04-26T04:08:22.702Z,74.14
2023-04-26T04:13:25.002Z,73.89
2023-04-26T04:18:27.461Z,74.10
2023-04-26T04:23:29.512Z,74.17
2023-04-26T04:28:32.707Z,74.07
2023-04-26T04:33:34.951Z,73.82
2023-04-26T04:38:37.398Z,74.16
2023-04-26T04:43:40.831Z,73.96
2023-04-26T04:48:44.515Z,73.81
2023-04-26T04:53:46.853Z,74.13
2023-04-26T04:58:49.229Z,74.06
2023-04-26T05:03:57.838Z,74.04
2023-04-26T05:09:01.715Z,74.43
2023-04-26T05:14:07.189Z,74.50
2023-04-26T05:19:09.787Z,75.00
2023-04-26T05:24:12.802Z,74.62
2023-04-26T05:29:15.763Z,74.28
2023-04-26T05:34:50.232Z,74.17
2023-04-26T05:39:52.528Z,74.25
2023-04-26T05:44:59.027Z,74.03
2023-04-26T05:50:02.466Z,74.13
2023-04-26T05:55:06.021Z,74.19
2023-04-26T06:00:09.979Z,74.07
2023-04-26T06:05:20.120Z,74.00
2023-04-26T06:10:23.080Z,74.06
2023-04-26T06:15:25.485Z,73.52
2023-04-26T06:20:27.900Z,73.55
2023-04-26T06:25:29.952Z,73.47
2023-04-26T06:30:32.867Z,73.38
2023-04-26T06:35:43.057Z,72.82
2023-04-26T06:40:46.797Z,73.04
2023-04-26T06:45:49.708Z,72.59
2023-04-26T06:50:54.599Z,72.51
2023-04-26T06:55:58.185Z,71.20
2023-04-26T07:01:00.231Z,71.07
2023-04-26T07:06:02.484Z,70.52
2023-04-26T07:11:10.441Z,69.89
2023-04-26T07:16:12.722Z,69.55
2023-04-26T07:21:15.406Z,69.63
2023-04-26T07:26:17.603Z,69.27
2023-04-26T07:31:20.664Z,68.97
2023-04-26T07:36:24.559Z,68.42
2023-04-26T07:41:27.184Z,68.61
2023-04-26T07:46:29.340Z,68.18
2023-04-26T07:51:32.048Z,67.67
2023-04-26T07:56:34.555Z,67.14
2023-04-26T08:01:37.336Z,66.47
2023-04-26T08:06:39.468Z,66.02
2023-04-26T08:11:42.217Z,66.14
2023-04-26T08:16:44.683Z,65.85
2023-04-26T08:21:46.816Z,65.06
2023-04-26T08:26:49.077Z,65.07
2023-04-26T08:31:51.128Z,64.67
2023-04-26T08:36:53.702Z,64.54
2023-04-26T08:42:00.050Z,64.29
2023-04-26T08:47:38.610Z,63.45
2023-04-26T08:52:42.295Z,64.63
2023-04-26T08:57:47.652Z,63.97
2023-04-26T09:02:52.150Z,64.22
2023-04-26T09:08:02.293Z,64.40
2023-04-26T09:13:04.398Z,64.18
2023-04-26T09:18:23.644Z,62.84
2023-04-26T09:23:25.770Z,64.19
2023-04-26T09:28:27.746Z,63.98
2023-04-26T09:33:29.911Z,64.59
2023-04-26T09:38:42.716Z,64.66
2023-04-26T09:43:44.871Z,66.09
2023-04-26T09:49:00.941Z,66.15
2023-04-26T10:24:45.465Z,68.92
2023-04-26T10:30:10.235Z,69.31
2023-04-26T10:35:13.869Z,69.25
2023-04-26T10:40:25.872Z,68.79
2023-04-26T10:45:30.307Z,68.61
2023-04-26T10:50:32.664Z,67.86
2023-04-26T10:55:46.790Z,67.23
2023-04-26T11:01:05.160Z,66.93
2023-04-26T11:06:50.918Z,65.94
2023-04-26T11:12:33.888Z,65.84
2023-04-26T11:35:57.938Z,65.43
2023-04-26T11:51:52.469Z,66.72
2023-04-26T11:56:54.900Z,67.23
2023-04-26T12:07:07.108Z,67.65
2023-04-26T12:12:09.262Z,68.04
2023-04-26T12:17:15.246Z,69.10
2023-04-26T12:22:22.158Z,69.59
2023-04-26T12:27:24.596Z,70.13
2023-04-26T12:32:27.113Z,69.91
2023-04-26T12:37:32.004Z,70.12
2023-04-26T12:42:34.109Z,70.09
2023-04-26T12:47:36.364Z,70.33
2023-04-26T12:52:41.694Z,69.11
2023-04-26T12:57:45.183Z,68.67
2023-04-26T13:02:47.605Z,68.31
2023-04-26T13:07:49.866Z,67.79
2023-04-26T13:12:53.929Z,67.35
2023-04-26T13:17:58.902Z,67.29
2023-04-26T13:23:00.927Z,67.47
2023-04-26T13:28:03.493Z,68.22
2023-04-26T13:33:05.649Z,68.48
2023-04-26T13:38:07.756Z,69.17
2023-04-26T13:43:09.909Z,69.70
2023-04-26T13:48:11.893Z,69.73
2023-04-26T13:53:14.026Z,69.85
2023-04-26T13:58:16.421Z,70.09
2023-04-26T14:03:25.632Z,69.41
2023-04-26T14:08:27.791Z,68.82
2023-04-26T14:13:32.462Z,69.07
2023-04-26T14:18:34.938Z,69.09
2023-04-26T14:23:37.260Z,69.13
2023-04-26T14:28:41.173Z,69.15
2023-04-26T14:33:43.306Z,69.10
2023-04-26T14:38:45.876Z,69.59
2023-04-26T14:43:47.994Z,69.27
2023-04-26T14:48:49.961Z,69.46
2023-04-26T14:53:52.352Z,69.56
2023-04-26T14:58:54.509Z,69.16
2023-04-26T15:03:59.925Z,69.44
2023-04-26T15:09:02.781Z,70.01
2023-04-26T15:14:04.677Z,70.47
2023-04-26T15:19:08.762Z,71.25
2023-04-26T15:24:11.404Z,71.26
2023-04-26T15:29:13.688Z,70.63
2023-04-26T15:34:19.095Z,70.06
2023-04-26T15:39:21.088Z,70.16
2023-04-26T15:44:23.151Z,69.70
2023-04-26T15:49:27.902Z,70.07
2023-04-26T15:54:29.913Z,69.86
2023-04-26T15:59:32.673Z,69.95
2023-04-26T16:04:34.823Z,70.07
2023-04-26T16:09:37.369Z,70.74
2023-04-26T16:14:39.298Z,70.96
2023-04-26T16:19:41.428Z,71.01
2023-04-26T16:24:43.626Z,71.04
2023-04-26T16:29:47.563Z,71.34
2023-04-26T16:34:49.819Z,71.27
2023-04-26T16:39:55.948Z,71.49
2023-04-26T16:44:58.080Z,71.16
2023-04-26T16:50:00.339Z,71.52
2023-04-26T16:55:03.051Z,71.85
2023-04-26T17:00:08.099Z,72.37
2023-04-26T17:05:10.972Z,72.63
2023-04-26T17:10:13.067Z,72.47
2023-04-26T17:15:18.124Z,73.06
2023-04-26T17:20:20.079Z,73.38
2023-04-26T17:25:23.614Z,74.13
2023-04-26T17:30:25.871Z,73.62
2023-04-26T17:35:27.950Z,73.18
2023-04-26T17:40:29.981Z,73.24
2023-04-26T17:45:32.259Z,72.95
2023-04-26T17:50:34.482Z,73.44
2023-04-26T17:55:36.554Z,73.89
2023-04-26T18:00:38.605Z,74.27
2023-04-26T18:05:40.782Z,74.52
2023-04-26T18:10:48.609Z,74.46
2023-04-26T18:15:51.518Z,74.49
2023-04-26T18:20:53.484Z,74.42
2023-04-26T18:25:56.057Z,75.06
2023-04-26T18:30:59.015Z,74.48
2023-04-26T18:36:01.048Z,75.22
2023-04-26T18:41:03.557Z,76.88
2023-04-26T18:46:14.749Z,76.23
2023-04-26T18:51:16.917Z,76.68
2023-04-26T18:56:18.953Z,77.04
2023-04-26T19:01:21.513Z,77.29
2023-04-26T19:06:23.552Z,77.16
2023-04-26T19:11:25.522Z,77.13
2023-04-26T19:16:27.797Z,76.94
2023-04-26T19:21:30.058Z,76.99
2023-04-26T19:26:36.720Z,77.18
2023-04-26T19:31:38.825Z,77.08
2023-04-26T19:36:42.081Z,77.56
2023-04-26T19:41:45.235Z,77.71
2023-04-26T19:46:47.510Z,77.81
2023-04-26T19:51:49.474Z,77.55
2023-04-26T19:56:52.068Z,77.71
2023-04-26T20:01:54.349Z,77.43
2023-04-26T20:06:57.338Z,77.31
2023-04-26T20:12:00.242Z,77.38
2023-04-26T20:17:02.657Z,77.38
2023-04-26T20:22:04.848Z,77.46
2023-04-26T20:27:06.998Z,77.52
2023-04-26T20:32:09.058Z,77.58
2023-04-26T20:37:11.032Z,77.63
2023-04-26T20:42:13.147Z,77.63
2023-04-26T20:47:15.568Z,77.46
2023-04-26T20:52:17.637Z,77.36
2023-04-26T22:45:01.426Z,75.35
2023-04-26T22:50:04.607Z,75.67
2023-04-26T22:55:10.082Z,75.85
2023-04-26T23:00:15.231Z,75.93
2023-04-26T23:05:17.631Z,76.20
2023-04-26T23:10:19.785Z,76.27
2023-04-26T23:15:22.092Z,76.48
2023-04-26T23:20:24.226Z,76.67
2023-04-26T23:25:26.792Z,76.79
2023-04-26T23:30:29.057Z,76.94
2023-04-26T23:35:31.394Z,76.99
2023-04-26T23:40:33.632Z,76.84
2023-04-26T23:45:36.017Z,77.00
2023-04-26T23:50:39.161Z,76.99
2023-04-26T23:55:41.527Z,76.55
